Terminal Aerodrome Forecast
Issued by NWS

Home | Current Version | Previous Version | Text Only | Print | Product List | Glossary On
Versions: 1 2 3 4 5 6 7 8 9 10 11 12 13 14 15 16 17 18 19 20 21 22 23 24 25
000
FTUS43 KIND 302320
TAFBMG
TAF
KBMG 302320Z 3100/3124 VRB06KT 6SM -SHRA VCTS OVC060CB
     FM310300 23005KT P6SM -SHRA OVC070
     FM310600 22006KT P6SM BKN040
     FM311200 23007KT P6SM OVC015
     FM311700 27008KT P6SM OVC008
     FM312000 29010KT P6SM OVC010
      AMD LTD TO CLD VIS AND WIND 3101/3113=

USA.gov is the U.S. government's official web portal to all federal, state and local government web resources and services.